sensor_id;sensor_type;location;lat;lon;timestamp;P1;durP1;ratioP1;P2;durP2;ratioP2
64313;SDS011;50650;48.180;11.524;2022-07-22T00:02:15;11.88;;;9.20;;
64313;SDS011;50650;48.180;11.524;2022-07-22T00:04:42;11.57;;;8.38;;
64313;SDS011;50650;48.180;11.524;2022-07-22T00:07:08;14.02;;;9.57;;
64313;SDS011;50650;48.180;11.524;2022-07-22T00:09:36;10.27;;;8.85;;
64313;SDS011;50650;48.180;11.524;2022-07-22T00:12:03;13.23;;;9.20;;
64313;SDS011;50650;48.180;11.524;2022-07-22T00:14:30;13.07;;;9.00;;
64313;SDS011;50650;48.180;11.524;2022-07-22T00:16:56;10.60;;;8.52;;
64313;SDS011;50650;48.180;11.524;2022-07-22T00:19:22;10.27;;;8.35;;
64313;SDS011;50650;48.180;11.524;2022-07-22T00:21:49;11.63;;;9.25;;
64313;SDS011;50650;48.180;11.524;2022-07-22T00:24:16;10.35;;;8.93;;
64313;SDS011;50650;48.180;11.524;2022-07-22T00:26:44;10.30;;;8.63;;
64313;SDS011;50650;48.180;11.524;2022-07-22T00:29:10;10.38;;;8.25;;
64313;SDS011;50650;48.180;11.524;2022-07-22T00:31:37;13.55;;;8.45;;
64313;SDS011;50650;48.180;11.524;2022-07-22T00:34:03;15.93;;;8.85;;
64313;SDS011;50650;48.180;11.524;2022-07-22T00:36:30;13.10;;;9.60;;
64313;SDS011;50650;48.180;11.524;2022-07-22T00:38:57;10.70;;;8.50;;
64313;SDS011;50650;48.180;11.524;2022-07-22T00:41:24;11.20;;;8.77;;
64313;SDS011;50650;48.180;11.524;2022-07-22T00:43:53;10.40;;;9.05;;
64313;SDS011;50650;48.180;11.524;2022-07-22T00:46:20;10.52;;;8.57;;
64313;SDS011;50650;48.180;11.524;2022-07-22T00:48:47;12.93;;;8.70;;
64313;SDS011;50650;48.180;11.524;2022-07-22T00:51:13;17.48;;;9.55;;
64313;SDS011;50650;48.180;11.524;2022-07-22T00:53:40;12.02;;;8.77;;
64313;SDS011;50650;48.180;11.524;2022-07-22T00:56:07;12.50;;;9.43;;
64313;SDS011;50650;48.180;11.524;2022-07-22T00:58:33;10.85;;;8.48;;
64313;SDS011;50650;48.180;11.524;2022-07-22T01:01:01;12.52;;;8.25;;
64313;SDS011;50650;48.180;11.524;2022-07-22T01:03:28;13.15;;;9.10;;
64313;SDS011;50650;48.180;11.524;2022-07-22T01:05:54;11.63;;;8.57;;
64313;SDS011;50650;48.180;11.524;2022-07-22T01:08:21;12.27;;;9.20;;
64313;SDS011;50650;48.180;11.524;2022-07-22T01:10:47;11.55;;;8.40;;
64313;SDS011;50650;48.180;11.524;2022-07-22T01:13:14;13.38;;;9.30;;
64313;SDS011;50650;48.180;11.524;2022-07-22T01:15:40;9.88;;;8.82;;
64313;SDS011;50650;48.180;11.524;2022-07-22T01:18:08;9.88;;;8.25;;
64313;SDS011;50650;48.180;11.524;2022-07-22T01:20:36;13.30;;;8.57;;
64313;SDS011;50650;48.180;11.524;2022-07-22T01:23:02;11.93;;;8.20;;
64313;SDS011;50650;48.180;11.524;2022-07-22T01:25:29;10.00;;;8.68;;
64313;SDS011;50650;48.180;11.524;2022-07-22T01:27:55;12.40;;;8.90;;
64313;SDS011;50650;48.180;11.524;2022-07-22T01:30:22;10.43;;;8.95;;
64313;SDS011;50650;48.180;11.524;2022-07-22T01:32:48;13.80;;;8.82;;
64313;SDS011;50650;48.180;11.524;2022-07-22T01:35:15;15.55;;;9.60;;
64313;SDS011;50650;48.180;11.524;2022-07-22T01:37:42;10.75;;;8.77;;
64313;SDS011;50650;48.180;11.524;2022-07-22T01:40:09;11.90;;;8.80;;
64313;SDS011;50650;48.180;11.524;2022-07-22T01:42:36;9.82;;;8.63;;
64313;SDS011;50650;48.180;11.524;2022-07-22T01:45:03;9.32;;;8.32;;
64313;SDS011;50650;48.180;11.524;2022-07-22T01:47:30;13.52;;;8.43;;
64313;SDS011;50650;48.180;11.524;2022-07-22T01:49:56;9.90;;;8.90;;
64313;SDS011;50650;48.180;11.524;2022-07-22T01:52:23;11.80;;;9.07;;
64313;SDS011;50650;48.180;11.524;2022-07-22T01:54:50;10.15;;;9.15;;
64313;SDS011;50650;48.180;11.524;2022-07-22T01:57:17;12.30;;;9.15;;
64313;SDS011;50650;48.180;11.524;2022-07-22T01:59:43;10.93;;;9.75;;
64313;SDS011;50650;48.180;11.524;2022-07-22T02:02:10;12.65;;;8.85;;
64313;SDS011;50650;48.180;11.524;2022-07-22T02:04:36;12.23;;;9.52;;
64313;SDS011;50650;48.180;11.524;2022-07-22T02:07:03;11.68;;;9.68;;
64313;SDS011;50650;48.180;11.524;2022-07-22T02:09:29;11.82;;;9.57;;
64313;SDS011;50650;48.180;11.524;2022-07-22T02:11:57;12.60;;;9.07;;
64313;SDS011;50650;48.180;11.524;2022-07-22T02:14:23;10.82;;;8.43;;
64313;SDS011;50650;48.180;11.524;2022-07-22T02:16:50;11.55;;;9.27;;
64313;SDS011;50650;48.180;11.524;2022-07-22T02:19:16;11.77;;;8.82;;
64313;SDS011;50650;48.180;11.524;2022-07-22T02:21:42;10.93;;;9.45;;
64313;SDS011;50650;48.180;11.524;2022-07-22T02:24:09;11.13;;;9.13;;
64313;SDS011;50650;48.180;11.524;2022-07-22T02:26:35;10.88;;;9.15;;
64313;SDS011;50650;48.180;11.524;2022-07-22T02:29:03;11.68;;;9.20;;
64313;SDS011;50650;48.180;11.524;2022-07-22T02:31:30;11.43;;;9.60;;
64313;SDS011;50650;48.180;11.524;2022-07-22T02:33:56;12.15;;;9.40;;
64313;SDS011;50650;48.180;11.524;2022-07-22T02:36:22;10.40;;;8.43;;
64313;SDS011;50650;48.180;11.524;2022-07-22T02:38:49;10.57;;;8.73;;
64313;SDS011;50650;48.180;11.524;2022-07-22T02:41:15;11.88;;;9.00;;
64313;SDS011;50650;48.180;11.524;2022-07-22T02:43:42;10.00;;;8.25;;
64313;SDS011;50650;48.180;11.524;2022-07-22T02:46:10;13.02;;;9.10;;
64313;SDS011;50650;48.180;11.524;2022-07-22T02:48:36;10.60;;;9.35;;
64313;SDS011;50650;48.180;11.524;2022-07-22T02:51:03;13.43;;;8.15;;
64313;SDS011;50650;48.180;11.524;2022-07-22T02:53:29;10.10;;;8.35;;
64313;SDS011;50650;48.180;11.524;2022-07-22T02:55:56;11.57;;;9.05;;
64313;SDS011;50650;48.180;11.524;2022-07-22T02:58:22;10.60;;;8.65;;
64313;SDS011;50650;48.180;11.524;2022-07-22T03:00:49;13.15;;;8.55;;
64313;SDS011;50650;48.180;11.524;2022-07-22T03:03:17;14.20;;;9.35;;
64313;SDS011;50650;48.180;11.524;2022-07-22T03:05:43;12.90;;;9.25;;
64313;SDS011;50650;48.180;11.524;2022-07-22T03:08:09;10.73;;;9.07;;
64313;SDS011;50650;48.180;11.524;2022-07-22T03:10:36;9.45;;;8.40;;
64313;SDS011;50650;48.180;11.524;2022-07-22T03:13:03;11.88;;;9.63;;
64313;SDS011;50650;48.180;11.524;2022-07-22T03:15:29;12.93;;;9.32;;
64313;SDS011;50650;48.180;11.524;2022-07-22T03:17:56;12.35;;;9.43;;
64313;SDS011;50650;48.180;11.524;2022-07-22T03:20:23;18.17;;;9.57;;
64313;SDS011;50650;48.180;11.524;2022-07-22T03:22:50;9.88;;;8.70;;
64313;SDS011;50650;48.180;11.524;2022-07-22T03:25:16;12.48;;;7.97;;
64313;SDS011;50650;48.180;11.524;2022-07-22T03:27:43;10.55;;;8.73;;
64313;SDS011;50650;48.180;11.524;2022-07-22T03:30:10;10.57;;;8.48;;
64313;SDS011;50650;48.180;11.524;2022-07-22T03:32:37;10.50;;;8.93;;
64313;SDS011;50650;48.180;11.524;2022-07-22T03:35:04;13.15;;;9.38;;
64313;SDS011;50650;48.180;11.524;2022-07-22T03:37:32;12.75;;;9.20;;
64313;SDS011;50650;48.180;11.524;2022-07-22T03:39:59;10.77;;;8.68;;
64313;SDS011;50650;48.180;11.524;2022-07-22T03:42:25;11.68;;;9.18;;
64313;SDS011;50650;48.180;11.524;2022-07-22T03:44:51;11.35;;;9.25;;
64313;SDS011;50650;48.180;11.524;2022-07-22T03:47:18;12.35;;;9.25;;
64313;SDS011;50650;48.180;11.524;2022-07-22T03:49:45;9.63;;;8.63;;
64313;SDS011;50650;48.180;11.524;2022-07-22T03:52:11;12.40;;;8.85;;
64313;SDS011;50650;48.180;11.524;2022-07-22T03:54:40;11.50;;;8.95;;
64313;SDS011;50650;48.180;11.524;2022-07-22T03:57:06;11.10;;;9.15;;
64313;SDS011;50650;48.180;11.524;2022-07-22T03:59:33;12.38;;;9.07;;
64313;SDS011;50650;48.180;11.524;2022-07-22T04:02:00;12.23;;;9.82;;
64313;SDS011;50650;48.180;11.524;2022-07-22T04:04:26;11.95;;;9.45;;
64313;SDS011;50650;48.180;11.524;2022-07-22T04:06:53;15.20;;;10.38;;
64313;SDS011;50650;48.180;11.524;2022-07-22T04:09:19;11.73;;;8.93;;
64313;SDS011;50650;48.180;11.524;2022-07-22T04:11:47;14.00;;;10.95;;
64313;SDS011;50650;48.180;11.524;2022-07-22T04:14:15;14.30;;;10.23;;
64313;SDS011;50650;48.180;11.524;2022-07-22T04:16:42;13.85;;;10.38;;
64313;SDS011;50650;48.180;11.524;2022-07-22T04:19:09;12.02;;;10.15;;
64313;SDS011;50650;48.180;11.524;2022-07-22T04:21:35;16.77;;;10.43;;
64313;SDS011;50650;48.180;11.524;2022-07-22T04:24:02;11.80;;;9.70;;
64313;SDS011;50650;48.180;11.524;2022-07-22T04:26:28;12.02;;;10.07;;
64313;SDS011;50650;48.180;11.524;2022-07-22T04:28:57;13.43;;;10.77;;
64313;SDS011;50650;48.180;11.524;2022-07-22T04:31:23;14.10;;;10.75;;
64313;SDS011;50650;48.180;11.524;2022-07-22T04:33:49;15.18;;;10.80;;
64313;SDS011;50650;48.180;11.524;2022-07-22T04:36:16;11.10;;;9.73;;
64313;SDS011;50650;48.180;11.524;2022-07-22T04:38:42;12.75;;;11.02;;
64313;SDS011;50650;48.180;11.524;2022-07-22T04:41:09;14.18;;;10.52;;
64313;SDS011;50650;48.180;11.524;2022-07-22T04:43:35;12.15;;;9.65;;
64313;SDS011;50650;48.180;11.524;2022-07-22T04:46:03;14.35;;;10.07;;
64313;SDS011;50650;48.180;11.524;2022-07-22T04:48:30;12.00;;;10.80;;
64313;SDS011;50650;48.180;11.524;2022-07-22T04:50:57;15.48;;;10.30;;
64313;SDS011;50650;48.180;11.524;2022-07-22T04:53:24;11.88;;;10.20;;
64313;SDS011;50650;48.180;11.524;2022-07-22T04:55:51;12.75;;;10.15;;
64313;SDS011;50650;48.180;11.524;2022-07-22T04:58:17;11.60;;;10.27;;
64313;SDS011;50650;48.180;11.524;2022-07-22T05:00:44;11.88;;;10.27;;
64313;SDS011;50650;48.180;11.524;2022-07-22T05:03:12;13.00;;;10.27;;
64313;SDS011;50650;48.180;11.524;2022-07-22T05:05:39;15.38;;;10.98;;
64313;SDS011;50650;48.180;11.524;2022-07-22T05:08:05;12.13;;;10.38;;
64313;SDS011;50650;48.180;11.524;2022-07-22T05:10:32;10.63;;;9.25;;
64313;SDS011;50650;48.180;11.524;2022-07-22T05:12:59;15.13;;;9.75;;
64313;SDS011;50650;48.180;11.524;2022-07-22T05:15:26;12.63;;;9.55;;
64313;SDS011;50650;48.180;11.524;2022-07-22T05:17:52;12.02;;;9.95;;
64313;SDS011;50650;48.180;11.524;2022-07-22T05:20:20;15.13;;;9.63;;
64313;SDS011;50650;48.180;11.524;2022-07-22T05:22:47;14.15;;;9.90;;
64313;SDS011;50650;48.180;11.524;2022-07-22T05:25:13;13.07;;;9.15;;
64313;SDS011;50650;48.180;11.524;2022-07-22T05:27:48;14.75;;;9.52;;
64313;SDS011;50650;48.180;11.524;2022-07-22T05:30:15;12.27;;;9.13;;
64313;SDS011;50650;48.180;11.524;2022-07-22T05:32:42;10.93;;;8.68;;
64313;SDS011;50650;48.180;11.524;2022-07-22T05:35:08;12.00;;;8.57;;
64313;SDS011;50650;48.180;11.524;2022-07-22T05:37:37;9.32;;;8.35;;
64313;SDS011;50650;48.180;11.524;2022-07-22T05:40:04;13.52;;;9.18;;
64313;SDS011;50650;48.180;11.524;2022-07-22T05:42:31;11.70;;;8.82;;
64313;SDS011;50650;48.180;11.524;2022-07-22T05:44:58;9.55;;;8.15;;
64313;SDS011;50650;48.180;11.524;2022-07-22T05:47:24;9.80;;;8.23;;
64313;SDS011;50650;48.180;11.524;2022-07-22T05:49:50;13.20;;;8.60;;
64313;SDS011;50650;48.180;11.524;2022-07-22T05:52:17;11.50;;;8.73;;
64313;SDS011;50650;48.180;11.524;2022-07-22T05:54:45;11.05;;;9.00;;
64313;SDS011;50650;48.180;11.524;2022-07-22T05:57:11;13.05;;;8.70;;
64313;SDS011;50650;48.180;11.524;2022-07-22T05:59:37;12.98;;;9.40;;
64313;SDS011;50650;48.180;11.524;2022-07-22T06:02:04;11.57;;;9.38;;
64313;SDS011;50650;48.180;11.524;2022-07-22T06:04:30;9.82;;;8.70;;
64313;SDS011;50650;48.180;11.524;2022-07-22T06:06:57;10.38;;;8.73;;
64313;SDS011;50650;48.180;11.524;2022-07-22T06:09:23;11.00;;;8.57;;
64313;SDS011;50650;48.180;11.524;2022-07-22T06:11:51;11.05;;;9.25;;
64313;SDS011;50650;48.180;11.524;2022-07-22T06:14:18;9.95;;;8.95;;
64313;SDS011;50650;48.180;11.524;2022-07-22T06:16:44;9.82;;;8.80;;
64313;SDS011;50650;48.180;11.524;2022-07-22T06:19:10;10.75;;;9.05;;
64313;SDS011;50650;48.180;11.524;2022-07-22T06:21:37;10.00;;;8.88;;
64313;SDS011;50650;48.180;11.524;2022-07-22T06:24:05;13.13;;;9.05;;
64313;SDS011;50650;48.180;11.524;2022-07-22T06:26:32;11.93;;;9.02;;
64313;SDS011;50650;48.180;11.524;2022-07-22T06:29:00;12.18;;;9.35;;
64313;SDS011;50650;48.180;11.524;2022-07-22T06:31:26;11.07;;;8.93;;
64313;SDS011;50650;48.180;11.524;2022-07-22T06:33:53;17.40;;;8.68;;
64313;SDS011;50650;48.180;11.524;2022-07-22T06:36:19;14.98;;;9.32;;
64313;SDS011;50650;48.180;11.524;2022-07-22T06:38:46;12.85;;;9.50;;
64313;SDS011;50650;48.180;11.524;2022-07-22T06:41:12;10.57;;;8.38;;
64313;SDS011;50650;48.180;11.524;2022-07-22T06:43:38;12.02;;;9.30;;
64313;SDS011;50650;48.180;11.524;2022-07-22T06:46:07;12.45;;;8.68;;
64313;SDS011;50650;48.180;11.524;2022-07-22T06:48:33;16.40;;;9.80;;
64313;SDS011;50650;48.180;11.524;2022-07-22T06:51:00;13.98;;;8.93;;
64313;SDS011;50650;48.180;11.524;2022-07-22T06:53:26;18.35;;;8.77;;
64313;SDS011;50650;48.180;11.524;2022-07-22T06:55:53;17.35;;;9.32;;
64313;SDS011;50650;48.180;11.524;2022-07-22T06:58:19;15.90;;;9.80;;
64313;SDS011;50650;48.180;11.524;2022-07-22T07:00:46;13.80;;;8.50;;
64313;SDS011;50650;48.180;11.524;2022-07-22T07:03:14;15.10;;;9.00;;
64313;SDS011;50650;48.180;11.524;2022-07-22T07:05:41;21.63;;;10.68;;
64313;SDS011;50650;48.180;11.524;2022-07-22T07:08:07;14.30;;;11.35;;
64313;SDS011;50650;48.180;11.524;2022-07-22T07:10:34;21.85;;;11.43;;
64313;SDS011;50650;48.180;11.524;2022-07-22T07:13:00;17.15;;;9.90;;
64313;SDS011;50650;48.180;11.524;2022-07-22T07:15:27;16.42;;;9.88;;
64313;SDS011;50650;48.180;11.524;2022-07-22T07:17:55;15.40;;;10.38;;
64313;SDS011;50650;48.180;11.524;2022-07-22T07:20:23;17.77;;;11.07;;
64313;SDS011;50650;48.180;11.524;2022-07-22T07:22:50;12.77;;;10.00;;
64313;SDS011;50650;48.180;11.524;2022-07-22T07:25:16;13.15;;;9.82;;
64313;SDS011;50650;48.180;11.524;2022-07-22T07:27:43;16.95;;;11.80;;
64313;SDS011;50650;48.180;11.524;2022-07-22T07:30:10;17.85;;;11.73;;
64313;SDS011;50650;48.180;11.524;2022-07-22T07:32:37;13.57;;;9.20;;
64313;SDS011;50650;48.180;11.524;2022-07-22T07:35:04;16.52;;;10.07;;
64313;SDS011;50650;48.180;11.524;2022-07-22T07:37:33;15.02;;;9.88;;
64313;SDS011;50650;48.180;11.524;2022-07-22T07:39:59;12.98;;;8.60;;
64313;SDS011;50650;48.180;11.524;2022-07-22T07:42:26;17.33;;;8.00;;
64313;SDS011;50650;48.180;11.524;2022-07-22T07:44:53;14.52;;;7.72;;
64313;SDS011;50650;48.180;11.524;2022-07-22T07:47:19;10.23;;;7.18;;
64313;SDS011;50650;48.180;11.524;2022-07-22T07:49:46;10.43;;;7.00;;
64313;SDS011;50650;48.180;11.524;2022-07-22T07:52:13;8.68;;;7.18;;
64313;SDS011;50650;48.180;11.524;2022-07-22T07:54:41;10.20;;;6.97;;
64313;SDS011;50650;48.180;11.524;2022-07-22T07:57:08;14.23;;;7.30;;
64313;SDS011;50650;48.180;11.524;2022-07-22T07:59:35;12.02;;;7.22;;
64313;SDS011;50650;48.180;11.524;2022-07-22T08:02:02;12.15;;;6.95;;
64313;SDS011;50650;48.180;11.524;2022-07-22T08:04:29;10.98;;;7.22;;
64313;SDS011;50650;48.180;11.524;2022-07-22T08:06:56;10.27;;;6.85;;
64313;SDS011;50650;48.180;11.524;2022-07-22T08:09:22;10.20;;;6.05;;
64313;SDS011;50650;48.180;11.524;2022-07-22T08:11:50;10.95;;;6.20;;
64313;SDS011;50650;48.180;11.524;2022-07-22T08:14:17;8.93;;;6.43;;
64313;SDS011;50650;48.180;11.524;2022-07-22T08:16:43;7.40;;;5.95;;
64313;SDS011;50650;48.180;11.524;2022-07-22T08:19:10;10.02;;;6.20;;
64313;SDS011;50650;48.180;11.524;2022-07-22T08:21:36;10.73;;;6.65;;
64313;SDS011;50650;48.180;11.524;2022-07-22T08:24:03;9.45;;;6.45;;
64313;SDS011;50650;48.180;11.524;2022-07-22T08:26:30;8.23;;;6.13;;
64313;SDS011;50650;48.180;11.524;2022-07-22T08:28:57;8.85;;;6.82;;
64313;SDS011;50650;48.180;11.524;2022-07-22T08:31:24;6.40;;;5.70;;
64313;SDS011;50650;48.180;11.524;2022-07-22T08:33:50;8.52;;;6.00;;
64313;SDS011;50650;48.180;11.524;2022-07-22T08:36:17;14.27;;;6.05;;
64313;SDS011;50650;48.180;11.524;2022-07-22T08:38:43;10.05;;;5.97;;
64313;SDS011;50650;48.180;11.524;2022-07-22T08:41:10;7.22;;;6.03;;
64313;SDS011;50650;48.180;11.524;2022-07-22T08:43:36;7.13;;;5.68;;
64313;SDS011;50650;48.180;11.524;2022-07-22T08:46:07;10.00;;;6.03;;
64313;SDS011;50650;48.180;11.524;2022-07-22T08:48:35;7.93;;;6.05;;
64313;SDS011;50650;48.180;11.524;2022-07-22T08:51:02;6.05;;;5.38;;
64313;SDS011;50650;48.180;11.524;2022-07-22T08:53:29;9.05;;;5.50;;
64313;SDS011;50650;48.180;11.524;2022-07-22T08:55:55;9.35;;;5.93;;
64313;SDS011;50650;48.180;11.524;2022-07-22T08:58:23;7.25;;;5.57;;
64313;SDS011;50650;48.180;11.524;2022-07-22T09:01:03;9.50;;;5.53;;
64313;SDS011;50650;48.180;11.524;2022-07-22T09:03:31;9.50;;;5.85;;
64313;SDS011;50650;48.180;11.524;2022-07-22T09:05:57;7.72;;;5.35;;
64313;SDS011;50650;48.180;11.524;2022-07-22T09:08:25;11.30;;;6.18;;
64313;SDS011;50650;48.180;11.524;2022-07-22T09:10:51;7.53;;;5.50;;
64313;SDS011;50650;48.180;11.524;2022-07-22T09:13:18;7.25;;;6.10;;
64313;SDS011;50650;48.180;11.524;2022-07-22T09:15:48;6.97;;;5.35;;
64313;SDS011;50650;48.180;11.524;2022-07-22T09:18:17;6.97;;;4.95;;
64313;SDS011;50650;48.180;11.524;2022-07-22T09:20:45;8.05;;;4.93;;
64313;SDS011;50650;48.180;11.524;2022-07-22T09:23:12;6.38;;;5.00;;
64313;SDS011;50650;48.180;11.524;2022-07-22T09:25:40;7.03;;;5.20;;
64313;SDS011;50650;48.180;11.524;2022-07-22T09:28:17;19.08;;;5.35;;
64313;SDS011;50650;48.180;11.524;2022-07-22T09:30:46;9.20;;;5.90;;
64313;SDS011;50650;48.180;11.524;2022-07-22T09:33:14;8.00;;;5.68;;
64313;SDS011;50650;48.180;11.524;2022-07-22T09:35:41;7.68;;;5.18;;
64313;SDS011;50650;48.180;11.524;2022-07-22T09:38:09;9.98;;;5.57;;
64313;SDS011;50650;48.180;11.524;2022-07-22T09:40:38;7.88;;;5.13;;
64313;SDS011;50650;48.180;11.524;2022-07-22T09:43:07;7.38;;;4.82;;
64313;SDS011;50650;48.180;11.524;2022-07-22T09:45:37;7.22;;;5.80;;
64313;SDS011;50650;48.180;11.524;2022-07-22T09:48:10;8.07;;;5.55;;
64313;SDS011;50650;48.180;11.524;2022-07-22T09:50:37;8.73;;;4.95;;
64313;SDS011;50650;48.180;11.524;2022-07-22T09:53:03;9.73;;;4.97;;
64313;SDS011;50650;48.180;11.524;2022-07-22T09:55:33;6.85;;;5.20;;
64313;SDS011;50650;48.180;11.524;2022-07-22T09:58:03;7.63;;;5.53;;
64313;SDS011;50650;48.180;11.524;2022-07-22T10:00:30;7.78;;;5.45;;
64313;SDS011;50650;48.180;11.524;2022-07-22T10:02:57;9.07;;;5.50;;
64313;SDS011;50650;48.180;11.524;2022-07-22T10:05:26;4.75;;;4.30;;
64313;SDS011;50650;48.180;11.524;2022-07-22T10:07:54;8.50;;;5.00;;
64313;SDS011;50650;48.180;11.524;2022-07-22T10:10:21;9.70;;;5.40;;
64313;SDS011;50650;48.180;11.524;2022-07-22T10:12:51;10.32;;;4.80;;
64313;SDS011;50650;48.180;11.524;2022-07-22T10:15:19;7.50;;;5.43;;
64313;SDS011;50650;48.180;11.524;2022-07-22T10:17:47;7.88;;;5.07;;
64313;SDS011;50650;48.180;11.524;2022-07-22T10:20:16;9.85;;;4.88;;
64313;SDS011;50650;48.180;11.524;2022-07-22T10:22:47;8.57;;;5.05;;
64313;SDS011;50650;48.180;11.524;2022-07-22T10:25:15;11.50;;;5.80;;
64313;SDS011;50650;48.180;11.524;2022-07-22T10:27:44;6.80;;;5.25;;
64313;SDS011;50650;48.180;11.524;2022-07-22T10:30:13;8.95;;;4.75;;
64313;SDS011;50650;48.180;11.524;2022-07-22T10:32:41;7.13;;;5.10;;
64313;SDS011;50650;48.180;11.524;2022-07-22T10:35:24;7.15;;;5.05;;
64313;SDS011;50650;48.180;11.524;2022-07-22T10:37:58;13.60;;;4.88;;
64313;SDS011;50650;48.180;11.524;2022-07-22T10:40:26;8.18;;;5.32;;
64313;SDS011;50650;48.180;11.524;2022-07-22T10:45:47;8.30;;;5.43;;
64313;SDS011;50650;48.180;11.524;2022-07-22T10:48:16;6.05;;;4.53;;
64313;SDS011;50650;48.180;11.524;2022-07-22T10:50:49;6.18;;;4.85;;
64313;SDS011;50650;48.180;11.524;2022-07-22T10:53:46;7.32;;;5.18;;
64313;SDS011;50650;48.180;11.524;2022-07-22T10:56:20;5.57;;;4.80;;
64313;SDS011;50650;48.180;11.524;2022-07-22T10:58:55;5.28;;;4.78;;
64313;SDS011;50650;48.180;11.524;2022-07-22T11:01:25;6.35;;;5.00;;
64313;SDS011;50650;48.180;11.524;2022-07-22T11:03:54;9.98;;;5.30;;
64313;SDS011;50650;48.180;11.524;2022-07-22T11:06:26;7.50;;;4.65;;
64313;SDS011;50650;48.180;11.524;2022-07-22T11:08:55;7.45;;;5.32;;
64313;SDS011;50650;48.180;11.524;2022-07-22T11:11:36;7.10;;;4.90;;
64313;SDS011;50650;48.180;11.524;2022-07-22T11:17:03;8.35;;;4.72;;
64313;SDS011;50650;48.180;11.524;2022-07-22T11:19:31;7.10;;;4.85;;
64313;SDS011;50650;48.180;11.524;2022-07-22T11:21:58;6.75;;;5.15;;
64313;SDS011;50650;48.180;11.524;2022-07-22T11:24:27;11.68;;;5.43;;
64313;SDS011;50650;48.180;11.524;2022-07-22T11:26:55;9.82;;;5.60;;
64313;SDS011;50650;48.180;11.524;2022-07-22T11:29:24;7.40;;;5.00;;
64313;SDS011;50650;48.180;11.524;2022-07-22T11:31:52;7.88;;;4.28;;
64313;SDS011;50650;48.180;11.524;2022-07-22T11:34:20;6.22;;;4.72;;
64313;SDS011;50650;48.180;11.524;2022-07-22T11:36:47;5.68;;;4.90;;
64313;SDS011;50650;48.180;11.524;2022-07-22T11:39:14;6.60;;;4.97;;
64313;SDS011;50650;48.180;11.524;2022-07-22T11:41:44;6.35;;;4.72;;
64313;SDS011;50650;48.180;11.524;2022-07-22T11:44:11;6.07;;;5.10;;
64313;SDS011;50650;48.180;11.524;2022-07-22T11:46:38;9.27;;;4.70;;
64313;SDS011;50650;48.180;11.524;2022-07-22T11:49:05;8.15;;;5.13;;
64313;SDS011;50650;48.180;11.524;2022-07-22T11:51:35;10.55;;;5.30;;
64313;SDS011;50650;48.180;11.524;2022-07-22T11:54:02;7.40;;;4.68;;
64313;SDS011;50650;48.180;11.524;2022-07-22T11:56:29;5.53;;;4.60;;
64313;SDS011;50650;48.180;11.524;2022-07-22T11:58:56;9.38;;;4.93;;
64313;SDS011;50650;48.180;11.524;2022-07-22T12:01:24;7.75;;;4.75;;
64313;SDS011;50650;48.180;11.524;2022-07-22T12:03:51;7.90;;;4.85;;
64313;SDS011;50650;48.180;11.524;2022-07-22T12:06:20;6.40;;;5.05;;
64313;SDS011;50650;48.180;11.524;2022-07-22T12:08:49;8.55;;;4.95;;
64313;SDS011;50650;48.180;11.524;2022-07-22T12:11:17;8.95;;;5.10;;
64313;SDS011;50650;48.180;11.524;2022-07-22T12:13:45;7.30;;;5.30;;
64313;SDS011;50650;48.180;11.524;2022-07-22T12:16:16;7.25;;;4.80;;
64313;SDS011;50650;48.180;11.524;2022-07-22T12:18:44;7.03;;;4.63;;
64313;SDS011;50650;48.180;11.524;2022-07-22T12:21:17;5.68;;;5.10;;
64313;SDS011;50650;48.180;11.524;2022-07-22T12:23:50;6.35;;;4.85;;
64313;SDS011;50650;48.180;11.524;2022-07-22T12:26:35;7.72;;;5.28;;
64313;SDS011;50650;48.180;11.524;2022-07-22T12:29:19;9.07;;;5.30;;
64313;SDS011;50650;48.180;11.524;2022-07-22T12:31:47;6.50;;;4.88;;
64313;SDS011;50650;48.180;11.524;2022-07-22T12:34:15;7.80;;;4.80;;
64313;SDS011;50650;48.180;11.524;2022-07-22T12:36:45;8.77;;;5.50;;
64313;SDS011;50650;48.180;11.524;2022-07-22T12:39:17;7.45;;;4.88;;
64313;SDS011;50650;48.180;11.524;2022-07-22T12:41:44;6.57;;;4.68;;
64313;SDS011;50650;48.180;11.524;2022-07-22T12:44:16;6.28;;;4.63;;
64313;SDS011;50650;48.180;11.524;2022-07-22T12:46:47;13.88;;;4.93;;
64313;SDS011;50650;48.180;11.524;2022-07-22T12:49:16;9.18;;;4.93;;
64313;SDS011;50650;48.180;11.524;2022-07-22T12:54:36;9.80;;;5.07;;
64313;SDS011;50650;48.180;11.524;2022-07-22T12:57:03;5.63;;;4.32;;
64313;SDS011;50650;48.180;11.524;2022-07-22T12:59:30;9.20;;;5.22;;
64313;SDS011;50650;48.180;11.524;2022-07-22T13:01:56;10.30;;;5.00;;
64313;SDS011;50650;48.180;11.524;2022-07-22T13:04:22;8.60;;;4.85;;
64313;SDS011;50650;48.180;11.524;2022-07-22T13:06:49;8.43;;;5.05;;
64313;SDS011;50650;48.180;11.524;2022-07-22T13:09:16;6.35;;;4.97;;
64313;SDS011;50650;48.180;11.524;2022-07-22T13:11:43;12.75;;;4.70;;
64313;SDS011;50650;48.180;11.524;2022-07-22T13:14:11;5.60;;;4.72;;
64313;SDS011;50650;48.180;11.524;2022-07-22T13:16:37;6.40;;;4.70;;
64313;SDS011;50650;48.180;11.524;2022-07-22T13:19:04;7.65;;;4.90;;
64313;SDS011;50650;48.180;11.524;2022-07-22T13:21:30;8.43;;;4.50;;
64313;SDS011;50650;48.180;11.524;2022-07-22T13:23:57;9.40;;;4.53;;
64313;SDS011;50650;48.180;11.524;2022-07-22T13:26:23;7.10;;;4.72;;
64313;SDS011;50650;48.180;11.524;2022-07-22T13:28:52;6.70;;;4.75;;
64313;SDS011;50650;48.180;11.524;2022-07-22T13:31:18;16.50;;;5.32;;
64313;SDS011;50650;48.180;11.524;2022-07-22T13:33:45;11.75;;;5.40;;
64313;SDS011;50650;48.180;11.524;2022-07-22T13:36:11;11.73;;;5.22;;
64313;SDS011;50650;48.180;11.524;2022-07-22T13:38:37;5.70;;;4.75;;
64313;SDS011;50650;48.180;11.524;2022-07-22T13:41:04;7.57;;;4.97;;
64313;SDS011;50650;48.180;11.524;2022-07-22T13:43:41;5.53;;;4.97;;
64313;SDS011;50650;48.180;11.524;2022-07-22T13:46:09;6.88;;;4.78;;
64313;SDS011;50650;48.180;11.524;2022-07-22T13:48:38;5.90;;;4.65;;
64313;SDS011;50650;48.180;11.524;2022-07-22T13:51:07;6.22;;;5.00;;
64313;SDS011;50650;48.180;11.524;2022-07-22T13:53:34;9.90;;;5.15;;
64313;SDS011;50650;48.180;11.524;2022-07-22T13:56:00;8.57;;;5.20;;
64313;SDS011;50650;48.180;11.524;2022-07-22T13:58:27;6.28;;;4.93;;
64313;SDS011;50650;48.180;11.524;2022-07-22T14:00:54;5.20;;;4.65;;
64313;SDS011;50650;48.180;11.524;2022-07-22T14:03:21;8.52;;;4.95;;
64313;SDS011;50650;48.180;11.524;2022-07-22T14:05:48;6.07;;;5.10;;
64313;SDS011;50650;48.180;11.524;2022-07-22T14:08:14;8.05;;;5.07;;
64313;SDS011;50650;48.180;11.524;2022-07-22T14:10:41;8.13;;;5.10;;
64313;SDS011;50650;48.180;11.524;2022-07-22T14:13:07;12.27;;;5.30;;
64313;SDS011;50650;48.180;11.524;2022-07-22T14:15:34;7.97;;;5.22;;
64313;SDS011;50650;48.180;11.524;2022-07-22T14:18:00;11.65;;;4.85;;
64313;SDS011;50650;48.180;11.524;2022-07-22T14:20:28;6.35;;;4.75;;
64313;SDS011;50650;48.180;11.524;2022-07-22T14:22:54;5.93;;;5.07;;
64313;SDS011;50650;48.180;11.524;2022-07-22T14:25:21;5.72;;;4.47;;
64313;SDS011;50650;48.180;11.524;2022-07-22T14:27:48;9.10;;;4.78;;
64313;SDS011;50650;48.180;11.524;2022-07-22T14:30:15;10.43;;;4.88;;
64313;SDS011;50650;48.180;11.524;2022-07-22T14:32:42;5.95;;;4.82;;
64313;SDS011;50650;48.180;11.524;2022-07-22T14:35:08;8.80;;;4.95;;
64313;SDS011;50650;48.180;11.524;2022-07-22T14:37:36;11.35;;;4.88;;